createdAt,value
2018-08-09T00:00:19.398Z,100824.00
2018-08-09T00:02:49.820Z,100824.00
2018-08-09T00:05:19.611Z,100831.00
2018-08-09T00:07:49.451Z,100824.00
2018-08-09T00:10:19.306Z,100827.00
2018-08-09T00:12:49.168Z,100821.00
2018-08-09T00:15:18.920Z,100820.00
2018-08-09T00:17:48.500Z,100822.00
2018-08-09T00:20:18.258Z,100822.00
2018-08-09T00:22:47.766Z,100829.00
2018-08-09T00:25:17.679Z,100826.00
2018-08-09T00:27:47.112Z,100825.00
2018-08-09T00:30:16.908Z,100818.00
2018-08-09T00:32:46.737Z,100830.00
2018-08-09T00:35:16.698Z,100820.00
2018-08-09T00:37:46.704Z,100822.00
2018-08-09T00:40:16.301Z,100820.00
2018-08-09T00:42:46.424Z,100822.00
2018-08-09T00:45:16.035Z,100825.00
2018-08-09T00:47:45.618Z,100834.00
2018-08-09T00:50:15.476Z,100839.00
2018-08-09T00:52:45.409Z,100825.00
2018-08-09T00:55:15.261Z,100832.00
2018-08-09T00:57:45.174Z,100823.00
2018-08-09T01:00:15.415Z,100821.00
2018-08-09T01:02:45.373Z,100827.00
2018-08-09T01:05:15.217Z,100814.00
2018-08-09T01:07:45.283Z,100808.00
2018-08-09T01:10:15.025Z,100810.00
2018-08-09T01:12:44.867Z,100807.00
2018-08-09T01:15:14.532Z,100805.00
2018-08-09T01:17:43.767Z,100808.00
2018-08-09T01:20:13.337Z,100797.00
2018-08-09T01:22:43.485Z,100811.00
2018-08-09T01:25:13.201Z,100809.00
2018-08-09T01:27:43.129Z,100813.00
2018-08-09T01:30:12.859Z,100818.00
2018-08-09T01:32:42.825Z,100813.00
2018-08-09T01:35:13.085Z,100806.00
2018-08-09T01:37:43.097Z,100809.00
2018-08-09T01:40:12.779Z,100806.00
2018-08-09T01:42:53.748Z,100808.00
2018-08-09T01:45:23.812Z,100816.00
2018-08-09T01:47:53.461Z,100820.00
2018-08-09T01:50:23.037Z,100818.00
2018-08-09T01:52:53.257Z,100825.00
2018-08-09T01:55:22.851Z,100826.00
2018-08-09T01:57:52.516Z,100822.00
2018-08-09T02:00:22.287Z,100817.00
2018-08-09T02:02:51.753Z,100823.00
2018-08-09T02:05:21.590Z,100820.00
2018-08-09T02:07:51.821Z,100816.00
2018-08-09T02:10:22.152Z,100821.00
2018-08-09T02:12:51.896Z,100830.00
2018-08-09T02:15:21.960Z,100822.00
2018-08-09T02:17:51.879Z,100823.00
2018-08-09T02:20:21.595Z,100823.00
2018-08-09T02:22:51.377Z,100822.00
2018-08-09T02:25:21.002Z,100822.00
2018-08-09T02:27:50.501Z,100820.00
2018-08-09T02:30:20.199Z,100819.00
2018-08-09T02:32:49.955Z,100826.00
2018-08-09T02:35:19.715Z,100827.00
2018-08-09T02:37:49.064Z,100823.00
2018-08-09T02:40:18.869Z,100818.00
2018-08-09T02:42:48.608Z,100814.00
2018-08-09T02:45:18.917Z,100804.00
2018-08-09T02:47:49.170Z,100804.00
2018-08-09T02:50:19.126Z,100808.00
2018-08-09T02:52:49.018Z,100816.00
2018-08-09T02:55:19.037Z,100818.00
2018-08-09T02:57:48.815Z,100812.00
2018-08-09T03:00:18.444Z,100817.00
2018-08-09T03:02:48.358Z,100810.00
2018-08-09T03:05:18.073Z,100818.00
2018-08-09T03:07:47.350Z,100822.00
2018-08-09T03:10:16.792Z,100828.00
2018-08-09T03:12:46.475Z,100822.00
2018-08-09T03:15:16.131Z,100827.00
2018-08-09T03:17:45.590Z,100819.00
2018-08-09T03:20:15.150Z,100813.00
2018-08-09T03:22:44.573Z,100813.00
2018-08-09T03:25:13.841Z,100820.00
2018-08-09T03:27:42.929Z,100820.00
2018-08-09T03:30:12.028Z,100826.00
2018-08-09T03:32:41.319Z,100830.00
2018-08-09T03:35:10.556Z,100833.00
2018-08-09T03:37:39.803Z,100832.00
2018-08-09T03:40:09.347Z,100829.00
2018-08-09T03:42:38.446Z,100830.00
2018-08-09T03:45:07.888Z,100831.00
2018-08-09T03:47:37.289Z,100809.00
2018-08-09T03:50:06.911Z,100823.00
2018-08-09T03:52:36.305Z,100826.00
2018-08-09T03:55:06.100Z,100829.00
2018-08-09T03:57:35.757Z,100826.00
2018-08-09T04:00:06.925Z,100825.00
2018-08-09T04:02:37.924Z,100824.00
2018-08-09T04:05:08.757Z,100825.00
2018-08-09T04:07:38.975Z,100821.00
2018-08-09T04:10:09.919Z,100824.00
2018-08-09T04:12:39.943Z,100830.00
2018-08-09T04:15:11.316Z,100829.00
2018-08-09T04:17:41.647Z,100822.00
2018-08-09T04:20:12.012Z,100824.00
2018-08-09T04:22:42.012Z,100820.00
2018-08-09T04:25:11.703Z,100829.00
2018-08-09T04:27:41.538Z,100825.00
2018-08-09T04:30:11.993Z,100843.00
2018-08-09T04:32:42.115Z,100837.00
2018-08-09T04:35:11.743Z,100838.00
2018-08-09T04:37:41.657Z,100838.00
2018-08-09T04:40:11.707Z,100848.00
2018-08-09T04:42:42.693Z,100848.00
2018-08-09T04:45:13.851Z,100834.00
2018-08-09T04:47:44.427Z,100844.00
2018-08-09T04:50:15.049Z,100849.00
2018-08-09T04:52:44.915Z,100844.00
2018-08-09T04:55:15.012Z,100848.00
2018-08-09T04:57:46.275Z,100843.00
2018-08-09T05:00:18.007Z,100827.00
2018-08-09T05:02:48.473Z,100824.00
2018-08-09T05:05:18.977Z,100826.00
2018-08-09T05:07:50.523Z,100832.00
2018-08-09T05:10:21.366Z,100829.00
2018-08-09T05:12:53.304Z,100821.00
2018-08-09T05:15:23.871Z,100838.00
2018-08-09T05:17:54.620Z,100848.00
2018-08-09T05:20:25.078Z,100843.00
2018-08-09T05:22:55.233Z,100850.00
2018-08-09T05:25:26.268Z,100839.00
2018-08-09T05:28:00.810Z,100843.00
2018-08-09T05:30:31.398Z,100845.00
2018-08-09T05:33:01.364Z,100835.00
2018-08-09T05:35:33.108Z,100835.00
2018-08-09T05:38:03.708Z,100829.00
2018-08-09T05:40:35.584Z,100831.00
2018-08-09T05:43:06.248Z,100825.00
2018-08-09T05:45:37.308Z,100826.00
2018-08-09T05:48:07.592Z,100827.00
2018-08-09T05:50:37.496Z,100827.00
2018-08-09T05:53:08.071Z,100825.00
2018-08-09T05:55:38.478Z,100828.00
2018-08-09T05:58:09.048Z,100833.00
2018-08-09T06:00:39.674Z,100834.00
2018-08-09T06:03:09.974Z,100834.00
2018-08-09T06:05:40.302Z,100832.00
2018-08-09T06:08:10.968Z,100824.00
2018-08-09T06:10:41.430Z,100825.00
2018-08-09T06:13:11.988Z,100813.00
2018-08-09T06:15:41.562Z,100828.00
2018-08-09T06:18:13.849Z,100834.00
2018-08-09T06:20:44.351Z,100843.00
2018-08-09T06:23:15.598Z,100838.00
2018-08-09T06:25:46.444Z,100849.00
2018-08-09T06:28:17.044Z,100844.00
2018-08-09T06:30:46.754Z,100826.00
2018-08-09T06:33:16.650Z,100823.00
2018-08-09T06:35:47.975Z,100824.00
2018-08-09T06:38:18.628Z,100817.00
2018-08-09T06:40:49.001Z,100814.00
2018-08-09T06:43:19.133Z,100813.00
2018-08-09T06:45:48.908Z,100817.00
2018-08-09T06:48:19.431Z,100822.00
2018-08-09T06:50:49.259Z,100819.00
2018-08-09T06:53:18.974Z,100794.00
2018-08-09T06:55:49.081Z,100798.00
2018-08-09T06:58:19.043Z,100793.00
2018-08-09T07:00:49.313Z,100793.00
2018-08-09T07:03:19.143Z,100785.00
2018-08-09T07:05:48.972Z,100787.00
2018-08-09T07:08:19.057Z,100794.00
2018-08-09T07:10:49.329Z,100775.00
2018-08-09T07:13:19.224Z,100786.00
2018-08-09T07:15:49.383Z,100788.00
2018-08-09T07:18:20.361Z,100784.00
2018-08-09T07:20:50.270Z,100784.00
2018-08-09T07:23:20.332Z,100791.00
2018-08-09T07:25:49.991Z,100793.00
2018-08-09T07:28:20.017Z,100801.00
2018-08-09T07:30:51.276Z,100808.00
2018-08-09T07:33:21.689Z,100797.00
2018-08-09T07:35:51.728Z,100791.00
2018-08-09T07:38:21.751Z,100783.00
2018-08-09T07:40:51.587Z,100780.00
2018-08-09T07:43:21.541Z,100776.00
2018-08-09T07:45:52.059Z,100765.00
2018-08-09T07:48:21.674Z,100771.00
2018-08-09T07:50:51.931Z,100771.00
2018-08-09T07:53:21.679Z,100773.00
2018-08-09T07:55:51.621Z,100771.00
2018-08-09T07:58:22.030Z,100773.00
2018-08-09T08:00:52.833Z,100763.00
2018-08-09T08:03:23.006Z,100765.00
2018-08-09T08:05:52.774Z,100760.00
2018-08-09T08:08:22.625Z,100759.00
2018-08-09T08:10:52.848Z,100758.00
2018-08-09T08:13:22.840Z,100759.00
2018-08-09T08:15:52.508Z,100738.00
2018-08-09T08:18:22.049Z,100744.00
2018-08-09T08:20:53.710Z,100737.00
2018-08-09T08:23:23.538Z,100726.00
2018-08-09T08:25:53.748Z,100724.00
2018-08-09T08:28:23.904Z,100722.00
2018-08-09T08:30:54.528Z,100722.00
2018-08-09T08:33:24.978Z,100711.00
2018-08-09T08:35:54.790Z,100714.00
2018-08-09T08:38:25.151Z,100705.00
2018-08-09T08:40:55.232Z,100712.00
2018-08-09T08:43:25.556Z,100724.00
2018-08-09T08:45:56.602Z,100711.00
2018-08-09T08:48:26.866Z,100704.00
2018-08-09T08:50:56.909Z,100713.00
2018-08-09T08:53:26.790Z,100703.00
2018-08-09T08:55:56.622Z,100708.00
2018-08-09T08:58:26.401Z,100694.00
2018-08-09T09:00:56.506Z,100702.00
2018-08-09T09:03:26.377Z,100691.00
2018-08-09T09:05:56.385Z,100701.00
2018-08-09T09:08:26.331Z,100689.00
2018-08-09T09:10:58.180Z,100694.00
2018-08-09T09:13:28.343Z,100693.00
2018-08-09T09:15:58.217Z,100696.00
2018-08-09T09:18:28.686Z,100691.00
2018-08-09T09:20:58.691Z,100691.00
2018-08-09T09:23:28.876Z,100691.00
2018-08-09T09:25:58.871Z,100692.00
2018-08-09T09:28:28.967Z,100675.00
2018-08-09T09:30:58.902Z,100682.00
2018-08-09T09:33:28.976Z,100672.00
2018-08-09T09:35:59.360Z,100679.00
2018-08-09T09:38:29.970Z,100660.00
2018-08-09T09:40:59.894Z,100655.00
2018-08-09T09:43:30.049Z,100663.00
2018-08-09T09:45:59.821Z,100658.00
2018-08-09T09:48:29.536Z,100644.00
2018-08-09T09:50:59.473Z,100653.00
2018-08-09T09:53:29.618Z,100654.00
2018-08-09T09:55:59.141Z,100653.00
2018-08-09T09:58:28.928Z,100653.00
2018-08-09T10:01:04.045Z,100639.00
2018-08-09T10:03:34.145Z,100635.00
2018-08-09T10:06:04.039Z,100633.00
2018-08-09T10:08:33.861Z,100625.00
2018-08-09T10:11:03.804Z,100624.00
2018-08-09T10:13:34.132Z,100606.00
2018-08-09T10:16:04.029Z,100605.00
2018-08-09T10:18:33.992Z,100606.00
2018-08-09T10:21:03.968Z,100600.00
2018-08-09T10:23:33.987Z,100595.00
2018-08-09T10:26:04.060Z,100600.00
2018-08-09T10:28:33.881Z,100595.00
2018-08-09T10:31:04.074Z,100581.00
2018-08-09T10:33:34.079Z,100578.00
2018-08-09T10:36:04.622Z,100580.00
2018-08-09T10:38:34.555Z,100568.00
2018-08-09T10:41:04.236Z,100563.00
2018-08-09T10:43:33.873Z,100568.00
2018-08-09T10:46:03.985Z,100556.00
2018-08-09T10:48:34.009Z,100554.00
2018-08-09T10:51:04.028Z,100543.00
2018-08-09T10:53:33.783Z,100547.00
2018-08-09T10:56:03.510Z,100549.00
2018-08-09T10:58:33.813Z,100535.00
2018-08-09T11:01:04.005Z,100529.00
2018-08-09T11:03:34.083Z,100537.00
2018-08-09T11:06:04.015Z,100534.00
2018-08-09T11:08:33.989Z,100524.00
2018-08-09T11:11:08.990Z,100517.00
2018-08-09T11:13:38.767Z,100507.00
2018-08-09T11:16:09.929Z,100503.00
2018-08-09T11:18:39.793Z,100492.00
2018-08-09T11:21:09.257Z,100480.00
2018-08-09T11:23:39.016Z,100471.00
2018-08-09T11:26:08.954Z,100458.00
2018-08-09T11:28:38.952Z,100468.00
2018-08-09T11:31:08.852Z,100467.00
2018-08-09T11:33:39.076Z,100467.00
2018-08-09T11:36:09.135Z,100464.00
2018-08-09T11:38:39.197Z,100458.00
2018-08-09T11:41:09.073Z,100450.00
2018-08-09T11:43:38.995Z,100432.00
2018-08-09T11:46:08.957Z,100431.00
2018-08-09T11:48:39.347Z,100432.00
2018-08-09T11:51:09.514Z,100427.00
2018-08-09T11:53:39.299Z,100427.00
2018-08-09T11:56:10.135Z,100429.00
2018-08-09T11:58:40.461Z,100418.00
2018-08-09T12:01:10.225Z,100404.00
2018-08-09T12:03:39.977Z,100384.00
2018-08-09T12:06:09.531Z,100375.00
2018-08-09T12:08:39.775Z,100371.00
2018-08-09T12:11:09.381Z,100377.00
2018-08-09T12:13:39.572Z,100374.00
2018-08-09T12:16:09.477Z,100373.00
2018-08-09T12:18:39.667Z,100365.00
2018-08-09T12:21:09.406Z,100351.00
2018-08-09T12:23:39.031Z,100349.00
2018-08-09T12:26:08.931Z,100333.00
2018-08-09T12:28:39.099Z,100337.00
2018-08-09T12:31:09.193Z,100315.00
2018-08-09T12:33:38.939Z,100318.00
2018-08-09T12:36:09.081Z,100321.00
2018-08-09T12:38:38.981Z,100323.00
2018-08-09T12:41:09.099Z,100309.00
2018-08-09T12:43:38.895Z,100315.00
2018-08-09T12:46:08.787Z,100310.00
2018-08-09T12:48:38.911Z,100309.00
2018-08-09T12:51:09.144Z,100310.00
2018-08-09T12:53:39.585Z,100313.00
2018-08-09T12:56:09.633Z,100304.00
2018-08-09T12:58:39.881Z,100305.00
2018-08-09T13:01:14.069Z,100307.00
2018-08-09T13:03:43.949Z,100289.00
2018-08-09T13:06:14.977Z,100288.00
2018-08-09T13:08:51.825Z,100281.00
2018-08-09T13:11:23.498Z,100289.00
2018-08-09T13:13:54.415Z,100271.00
2018-08-09T13:16:25.425Z,100268.00
2018-08-09T13:18:55.633Z,100268.00
2018-08-09T13:21:26.026Z,100257.00
2018-08-09T13:23:56.521Z,100258.00
2018-08-09T13:26:27.349Z,100255.00
2018-08-09T13:28:57.841Z,100249.00
2018-08-09T13:31:27.849Z,100247.00
2018-08-09T13:33:57.852Z,100243.00
2018-08-09T13:36:28.611Z,100232.00
2018-08-09T13:38:59.151Z,100231.00
2018-08-09T13:41:33.736Z,100211.00
2018-08-09T13:44:08.356Z,100207.00
2018-08-09T13:46:39.934Z,100191.00
2018-08-09T13:49:11.544Z,100187.00
2018-08-09T13:51:43.549Z,100184.00
2018-08-09T13:54:14.100Z,100164.00
2018-08-09T13:56:44.173Z,100161.00
2018-08-09T13:59:13.931Z,100154.00
2018-08-09T14:01:44.161Z,100135.00
2018-08-09T14:04:14.038Z,100147.00
2018-08-09T14:06:43.892Z,100134.00
2018-08-09T14:09:15.011Z,100126.00
2018-08-09T14:11:44.628Z,100116.00
2018-08-09T14:14:14.745Z,100112.00
2018-08-09T14:16:45.174Z,100113.00
2018-08-09T14:19:14.960Z,100108.00
2018-08-09T14:21:44.737Z,100113.00
2018-08-09T14:24:14.769Z,100097.00
2018-08-09T14:26:44.384Z,100091.00
2018-08-09T14:29:14.554Z,100083.00
2018-08-09T14:31:44.392Z,100083.00
2018-08-09T14:34:15.274Z,100081.00
2018-08-09T14:36:44.997Z,100086.00
2018-08-09T14:39:14.702Z,100077.00
2018-08-09T14:41:44.393Z,100083.00
2018-08-09T14:44:14.119Z,100080.00
2018-08-09T14:46:43.858Z,100088.00
2018-08-09T14:49:13.452Z,100080.00
2018-08-09T14:51:43.688Z,100089.00
2018-08-09T14:54:13.566Z,100080.00
2018-08-09T14:56:43.585Z,100069.00
2018-08-09T14:59:13.451Z,100054.00
2018-08-09T15:01:43.836Z,100056.00
2018-08-09T15:04:13.892Z,100065.00
2018-08-09T15:06:44.120Z,100064.00
2018-08-09T15:09:14.028Z,100057.00
2018-08-09T15:11:44.007Z,100049.00
2018-08-09T15:14:14.243Z,100047.00
2018-08-09T15:16:44.377Z,100038.00
2018-08-09T15:19:14.180Z,100026.00
2018-08-09T15:21:44.037Z,100007.00
2018-08-09T15:24:13.930Z,100008.00
2018-08-09T15:26:43.885Z,100017.00
2018-08-09T15:29:13.677Z,100017.00
2018-08-09T15:31:43.288Z,100027.00
2018-08-09T15:34:12.677Z,100049.00
2018-08-09T15:36:42.240Z,100112.00
2018-08-09T15:39:13.960Z,100118.00
2018-08-09T15:41:43.840Z,100104.00
2018-08-09T15:44:14.195Z,100115.00
2018-08-09T15:46:44.294Z,100127.00
2018-08-09T15:49:15.194Z,100123.00
2018-08-09T15:51:46.481Z,100125.00
2018-08-09T15:54:17.413Z,100134.00
2018-08-09T15:56:48.029Z,100136.00
2018-08-09T15:59:19.063Z,100116.00
2018-08-09T16:01:49.673Z,100116.00
2018-08-09T16:04:25.037Z,100090.00
2018-08-09T16:06:57.071Z,100090.00
2018-08-09T16:09:27.942Z,100082.00
2018-08-09T16:11:58.054Z,100086.00
2018-08-09T16:14:28.403Z,100105.00
2018-08-09T16:16:59.051Z,100220.00
2018-08-09T16:19:29.429Z,100251.00
2018-08-09T16:22:02.876Z,100282.00
2018-08-09T16:24:35.576Z,100226.00
2018-08-09T16:27:06.705Z,100242.00
2018-08-09T16:29:37.271Z,100287.00
2018-08-09T16:32:06.744Z,100310.00
2018-08-09T16:34:36.411Z,100331.00
2018-08-09T16:37:07.237Z,100337.00
2018-08-09T16:39:37.218Z,100308.00
2018-08-09T16:42:07.347Z,100303.00
2018-08-09T16:44:36.939Z,100287.00
2018-08-09T16:47:06.945Z,100277.00
2018-08-09T16:49:37.328Z,100256.00
2018-08-09T16:52:09.910Z,100229.00
2018-08-09T16:54:43.792Z,100221.00
2018-08-09T16:57:16.214Z,100206.00
2018-08-09T16:59:47.581Z,100200.00
2018-08-09T17:02:18.653Z,100180.00
2018-08-09T17:04:49.529Z,100185.00
2018-08-09T17:07:26.332Z,100173.00
2018-08-09T17:10:00.827Z,100160.00
2018-08-09T17:12:36.089Z,100159.00
2018-08-09T17:15:13.087Z,100157.00
2018-08-09T17:17:47.146Z,100164.00
2018-08-09T17:20:22.167Z,100145.00
2018-08-09T17:22:52.449Z,100131.00
2018-08-09T17:25:22.328Z,100134.00
2018-08-09T17:27:52.730Z,100138.00
2018-08-09T17:30:24.747Z,100127.00
2018-08-09T17:32:55.541Z,100120.00
2018-08-09T17:35:25.731Z,100120.00
2018-08-09T17:37:56.768Z,100130.00
2018-08-09T17:40:29.783Z,100136.00
2018-08-09T17:43:00.391Z,100115.00
2018-08-09T17:45:34.975Z,100122.00
2018-08-09T17:48:06.858Z,100122.00
2018-08-09T17:50:37.477Z,100132.00
2018-08-09T17:53:09.659Z,100125.00
2018-08-09T17:55:40.091Z,100121.00
2018-08-09T17:58:10.476Z,100106.00
2018-08-09T18:00:40.372Z,100094.00
2018-08-09T18:03:10.782Z,100099.00
2018-08-09T18:05:41.744Z,100083.00
2018-08-09T18:08:12.632Z,100078.00
2018-08-09T18:10:43.731Z,100095.00
2018-08-09T18:13:18.108Z,100100.00
2018-08-09T18:15:49.459Z,100098.00
2018-08-09T18:18:20.950Z,100106.00
2018-08-09T18:20:51.718Z,100108.00
2018-08-09T18:23:21.726Z,100112.00
2018-08-09T18:25:52.253Z,100122.00
2018-08-09T18:28:22.471Z,100136.00
2018-08-09T18:30:52.501Z,100122.00
2018-08-09T18:33:22.274Z,100123.00
2018-08-09T18:35:52.089Z,100140.00
2018-08-09T18:38:22.147Z,100147.00
2018-08-09T18:40:51.587Z,100143.00
2018-08-09T18:43:21.449Z,100146.00
2018-08-09T18:45:51.163Z,100144.00
2018-08-09T18:48:21.010Z,100144.00
2018-08-09T18:50:50.964Z,100125.00
2018-08-09T18:53:20.360Z,100129.00
2018-08-09T18:55:49.723Z,100128.00
2018-08-09T18:58:19.053Z,100127.00
2018-08-09T19:00:49.125Z,100120.00
2018-08-09T19:03:18.523Z,100130.00
2018-08-09T19:05:47.681Z,100131.00
2018-08-09T19:08:16.994Z,100137.00
2018-08-09T19:10:46.081Z,100143.00
2018-08-09T19:13:15.350Z,100149.00
2018-08-09T19:15:44.661Z,100132.00
2018-08-09T19:18:13.942Z,100127.00
2018-08-09T19:20:43.103Z,100128.00
2018-08-09T19:23:12.415Z,100131.00
2018-08-09T19:25:41.804Z,100133.00
2018-08-09T19:28:11.412Z,100146.00
2018-08-09T19:30:40.670Z,100148.00
2018-08-09T19:33:10.040Z,100154.00
2018-08-09T19:35:39.337Z,100165.00
2018-08-09T19:38:08.856Z,100158.00
2018-08-09T19:40:38.291Z,100163.00
2018-08-09T19:43:07.675Z,100154.00
2018-08-09T19:45:37.075Z,100152.00
2018-08-09T19:48:06.820Z,100154.00
2018-08-09T19:50:36.293Z,100151.00
2018-08-09T19:53:06.070Z,100157.00
2018-08-09T19:55:35.849Z,100157.00
2018-08-09T19:58:06.039Z,100165.00
2018-08-09T20:00:36.007Z,100165.00
2018-08-09T20:03:05.694Z,100163.00
2018-08-09T20:05:35.313Z,100172.00
2018-08-09T20:08:05.155Z,100186.00
2018-08-09T20:10:35.761Z,100177.00
2018-08-09T20:13:05.804Z,100174.00
2018-08-09T20:15:36.158Z,100193.00
2018-08-09T20:18:05.894Z,100196.00
2018-08-09T20:20:36.173Z,100204.00
2018-08-09T20:23:05.784Z,100198.00
2018-08-09T20:25:35.427Z,100196.00
2018-08-09T20:28:05.452Z,100197.00
2018-08-09T20:30:35.312Z,100200.00
2018-08-09T20:33:05.906Z,100203.00
2018-08-09T20:35:36.333Z,100202.00
2018-08-09T20:38:06.228Z,100203.00
2018-08-09T20:40:35.945Z,100215.00
2018-08-09T20:43:05.948Z,100213.00
2018-08-09T20:45:35.366Z,100224.00
2018-08-09T20:48:05.446Z,100215.00
2018-08-09T20:50:35.218Z,100216.00
2018-08-09T20:53:05.171Z,100209.00
2018-08-09T20:55:34.744Z,100208.00
2018-08-09T20:58:04.189Z,100212.00
2018-08-09T21:00:35.495Z,100212.00
2018-08-09T21:03:04.874Z,100205.00
2018-08-09T21:05:35.887Z,100205.00
2018-08-09T21:08:05.797Z,100200.00
2018-08-09T21:10:35.241Z,100215.00
2018-08-09T21:13:04.647Z,100211.00
2018-08-09T21:15:35.177Z,100215.00
2018-08-09T21:18:04.601Z,100220.00
2018-08-09T21:20:33.875Z,100217.00
2018-08-09T21:23:04.032Z,100225.00
2018-08-09T21:25:34.321Z,100222.00
2018-08-09T21:28:04.260Z,100225.00
2018-08-09T21:30:33.855Z,100238.00
2018-08-09T21:33:03.257Z,100245.00
2018-08-09T21:35:32.735Z,100242.00
2018-08-09T21:38:02.329Z,100226.00
2018-08-09T21:40:31.627Z,100229.00
2018-08-09T21:43:01.013Z,100244.00
2018-08-09T21:45:30.402Z,100254.00
2018-08-09T21:47:59.808Z,100273.00
2018-08-09T21:50:29.485Z,100274.00
2018-08-09T21:52:58.779Z,100273.00
2018-08-09T21:55:28.328Z,100282.00
2018-08-09T21:57:57.739Z,100292.00
2018-08-09T22:01:00.218Z,100294.00
2018-08-09T22:03:32.021Z,100301.00
2018-08-09T22:06:06.707Z,100305.00
2018-08-09T22:08:41.485Z,100320.00
2018-08-09T22:11:17.490Z,100343.00
2018-08-09T22:13:52.043Z,100351.00
2018-08-09T22:16:26.617Z,100365.00
2018-08-09T22:19:01.155Z,100378.00
2018-08-09T22:21:36.217Z,100377.00
2018-08-09T22:24:05.739Z,100388.00
2018-08-09T22:26:35.047Z,100398.00
2018-08-09T22:29:04.781Z,100402.00
2018-08-09T22:31:34.145Z,100416.00
2018-08-09T22:34:04.178Z,100418.00
2018-08-09T22:36:33.664Z,100415.00
2018-08-09T22:39:03.774Z,100410.00
2018-08-09T22:41:33.641Z,100408.00
2018-08-09T22:44:02.973Z,100408.00
2018-08-09T22:46:32.699Z,100423.00
2018-08-09T22:49:02.119Z,100429.00
2018-08-09T22:51:31.687Z,100435.00
2018-08-09T22:54:01.157Z,100442.00
2018-08-09T22:56:30.469Z,100451.00
2018-08-09T22:59:00.235Z,100461.00
2018-08-09T23:01:29.627Z,100449.00
2018-08-09T23:03:58.939Z,100462.00
2018-08-09T23:06:30.767Z,100463.00
2018-08-09T23:08:59.945Z,100463.00
2018-08-09T23:11:29.376Z,100478.00
2018-08-09T23:13:58.643Z,100476.00
2018-08-09T23:16:28.102Z,100476.00
2018-08-09T23:18:57.541Z,100475.00
2018-08-09T23:21:26.874Z,100479.00
2018-08-09T23:23:56.523Z,100473.00
2018-08-09T23:26:26.034Z,100471.00
2018-08-09T23:28:55.570Z,100476.00
2018-08-09T23:31:25.052Z,100456.00
2018-08-09T23:33:54.841Z,100478.00
2018-08-09T23:36:24.357Z,100483.00
2018-08-09T23:38:53.816Z,100471.00
2018-08-09T23:41:23.202Z,100484.00
2018-08-09T23:43:52.613Z,100482.00
2018-08-09T23:46:21.978Z,100478.00
2018-08-09T23:48:51.954Z,100487.00
2018-08-09T23:51:21.323Z,100480.00
2018-08-09T23:53:50.805Z,100488.00
2018-08-09T23:56:20.735Z,100497.00
2018-08-09T23:58:50.275Z,100496.00
